sensor_id;sensor_type;location;lat;lon;timestamp;P1;durP1;ratioP1;P2;durP2;ratioP2
5456;SDS011;2751;49.802;9.944;2023-04-03T00:00:49;3.03;;;2.50;;
5456;SDS011;2751;49.802;9.944;2023-04-03T00:03:16;5.40;;;3.03;;
5456;SDS011;2751;49.802;9.944;2023-04-03T00:05:45;5.13;;;2.73;;
5456;SDS011;2751;49.802;9.944;2023-04-03T00:08:12;2.87;;;2.57;;
5456;SDS011;2751;49.802;9.944;2023-04-03T00:10:39;2.57;;;2.37;;
5456;SDS011;2751;49.802;9.944;2023-04-03T00:13:06;3.97;;;2.83;;
5456;SDS011;2751;49.802;9.944;2023-04-03T00:15:34;8.00;;;2.80;;
5456;SDS011;2751;49.802;9.944;2023-04-03T00:18:01;4.70;;;2.63;;
5456;SDS011;2751;49.802;9.944;2023-04-03T00:20:28;3.30;;;2.70;;
5456;SDS011;2751;49.802;9.944;2023-04-03T00:22:57;3.10;;;2.63;;
5456;SDS011;2751;49.802;9.944;2023-04-03T00:25:24;2.50;;;2.30;;
5456;SDS011;2751;49.802;9.944;2023-04-03T00:27:51;3.20;;;2.40;;
5456;SDS011;2751;49.802;9.944;2023-04-03T00:30:19;3.10;;;2.80;;
5456;SDS011;2751;49.802;9.944;2023-04-03T00:32:47;4.00;;;2.80;;
5456;SDS011;2751;49.802;9.944;2023-04-03T00:35:14;3.20;;;2.53;;
5456;SDS011;2751;49.802;9.944;2023-04-03T00:37:41;6.40;;;2.47;;
5456;SDS011;2751;49.802;9.944;2023-04-03T00:40:10;2.40;;;2.20;;
5456;SDS011;2751;49.802;9.944;2023-04-03T00:42:39;2.60;;;2.23;;
5456;SDS011;2751;49.802;9.944;2023-04-03T00:45:23;2.17;;;2.07;;
5456;SDS011;2751;49.802;9.944;2023-04-03T00:47:59;3.70;;;2.70;;
5456;SDS011;2751;49.802;9.944;2023-04-03T00:50:30;2.60;;;2.40;;
5456;SDS011;2751;49.802;9.944;2023-04-03T00:52:58;3.73;;;2.87;;
5456;SDS011;2751;49.802;9.944;2023-04-03T00:55:27;2.87;;;2.60;;
5456;SDS011;2751;49.802;9.944;2023-04-03T00:57:55;2.83;;;2.60;;
5456;SDS011;2751;49.802;9.944;2023-04-03T01:00:23;2.27;;;2.17;;
5456;SDS011;2751;49.802;9.944;2023-04-03T01:02:51;3.83;;;2.50;;
5456;SDS011;2751;49.802;9.944;2023-04-03T01:05:18;2.50;;;2.30;;
5456;SDS011;2751;49.802;9.944;2023-04-03T01:07:46;2.97;;;2.77;;
5456;SDS011;2751;49.802;9.944;2023-04-03T01:10:15;2.57;;;2.37;;
5456;SDS011;2751;49.802;9.944;2023-04-03T01:12:46;2.73;;;2.53;;
5456;SDS011;2751;49.802;9.944;2023-04-03T01:15:15;2.87;;;2.57;;
5456;SDS011;2751;49.802;9.944;2023-04-03T01:17:44;4.47;;;2.63;;
5456;SDS011;2751;49.802;9.944;2023-04-03T01:20:20;2.80;;;2.57;;
5456;SDS011;2751;49.802;9.944;2023-04-03T01:23:12;4.07;;;2.20;;
5456;SDS011;2751;49.802;9.944;2023-04-03T01:25:47;3.23;;;2.37;;
5456;SDS011;2751;49.802;9.944;2023-04-03T01:28:19;3.23;;;2.30;;
5456;SDS011;2751;49.802;9.944;2023-04-03T01:30:48;3.07;;;2.60;;
5456;SDS011;2751;49.802;9.944;2023-04-03T01:33:20;2.50;;;2.30;;
5456;SDS011;2751;49.802;9.944;2023-04-03T01:35:47;2.30;;;2.20;;
5456;SDS011;2751;49.802;9.944;2023-04-03T01:38:14;2.40;;;2.20;;
5456;SDS011;2751;49.802;9.944;2023-04-03T01:40:42;2.67;;;2.47;;
5456;SDS011;2751;49.802;9.944;2023-04-03T01:43:09;2.40;;;2.20;;
5456;SDS011;2751;49.802;9.944;2023-04-03T01:45:36;4.37;;;2.60;;
5456;SDS011;2751;49.802;9.944;2023-04-03T01:48:03;2.43;;;1.90;;
5456;SDS011;2751;49.802;9.944;2023-04-03T01:50:32;2.60;;;2.20;;
5456;SDS011;2751;49.802;9.944;2023-04-03T01:52:59;2.50;;;2.40;;
5456;SDS011;2751;49.802;9.944;2023-04-03T01:55:26;4.90;;;2.43;;
5456;SDS011;2751;49.802;9.944;2023-04-03T01:57:53;2.47;;;2.27;;
5456;SDS011;2751;49.802;9.944;2023-04-03T02:00:20;3.23;;;3.00;;
5456;SDS011;2751;49.802;9.944;2023-04-03T02:02:46;3.27;;;2.90;;
5456;SDS011;2751;49.802;9.944;2023-04-03T02:05:13;2.20;;;2.00;;
5456;SDS011;2751;49.802;9.944;2023-04-03T02:07:42;2.43;;;2.33;;
5456;SDS011;2751;49.802;9.944;2023-04-03T02:10:09;5.17;;;2.50;;
5456;SDS011;2751;49.802;9.944;2023-04-03T02:12:36;2.33;;;2.17;;
5456;SDS011;2751;49.802;9.944;2023-04-03T02:15:03;4.00;;;2.30;;
5456;SDS011;2751;49.802;9.944;2023-04-03T02:17:31;4.37;;;2.30;;
5456;SDS011;2751;49.802;9.944;2023-04-03T02:19:58;3.00;;;2.40;;
5456;SDS011;2751;49.802;9.944;2023-04-03T02:22:25;2.13;;;2.00;;
5456;SDS011;2751;49.802;9.944;2023-04-03T02:24:53;2.90;;;2.60;;
5456;SDS011;2751;49.802;9.944;2023-04-03T02:27:20;2.50;;;2.30;;
5456;SDS011;2751;49.802;9.944;2023-04-03T02:29:47;4.60;;;2.60;;
5456;SDS011;2751;49.802;9.944;2023-04-03T02:32:14;2.63;;;2.10;;
5456;SDS011;2751;49.802;9.944;2023-04-03T02:34:41;3.30;;;2.40;;
5456;SDS011;2751;49.802;9.944;2023-04-03T02:37:08;2.70;;;2.23;;
5456;SDS011;2751;49.802;9.944;2023-04-03T02:39:35;3.80;;;2.47;;
5456;SDS011;2751;49.802;9.944;2023-04-03T02:42:03;2.10;;;2.00;;
5456;SDS011;2751;49.802;9.944;2023-04-03T02:44:30;3.37;;;2.10;;
5456;SDS011;2751;49.802;9.944;2023-04-03T02:46:57;2.10;;;2.00;;
5456;SDS011;2751;49.802;9.944;2023-04-03T02:49:24;2.60;;;2.50;;
5456;SDS011;2751;49.802;9.944;2023-04-03T02:51:51;1.83;;;1.73;;
5456;SDS011;2751;49.802;9.944;2023-04-03T02:54:18;2.63;;;2.20;;
5456;SDS011;2751;49.802;9.944;2023-04-03T02:56:45;2.23;;;2.13;;
5456;SDS011;2751;49.802;9.944;2023-04-03T02:59:14;2.73;;;2.13;;
5456;SDS011;2751;49.802;9.944;2023-04-03T03:01:41;2.13;;;2.00;;
5456;SDS011;2751;49.802;9.944;2023-04-03T03:04:08;2.70;;;2.33;;
5456;SDS011;2751;49.802;9.944;2023-04-03T03:06:34;2.43;;;2.23;;
5456;SDS011;2751;49.802;9.944;2023-04-03T03:09:02;2.80;;;2.60;;
5456;SDS011;2751;49.802;9.944;2023-04-03T03:11:29;2.80;;;2.60;;
5456;SDS011;2751;49.802;9.944;2023-04-03T03:13:56;3.20;;;2.83;;
5456;SDS011;2751;49.802;9.944;2023-04-03T03:16:24;2.90;;;2.60;;
5456;SDS011;2751;49.802;9.944;2023-04-03T03:18:51;3.37;;;2.70;;
5456;SDS011;2751;49.802;9.944;2023-04-03T03:21:18;2.77;;;2.40;;
5456;SDS011;2751;49.802;9.944;2023-04-03T03:23:44;3.03;;;2.73;;
5456;SDS011;2751;49.802;9.944;2023-04-03T03:26:11;3.57;;;3.27;;
5456;SDS011;2751;49.802;9.944;2023-04-03T03:28:39;3.10;;;2.87;;
5456;SDS011;2751;49.802;9.944;2023-04-03T03:31:06;3.77;;;2.73;;
5456;SDS011;2751;49.802;9.944;2023-04-03T03:33:36;3.57;;;2.60;;
5456;SDS011;2751;49.802;9.944;2023-04-03T03:36:03;6.27;;;2.97;;
5456;SDS011;2751;49.802;9.944;2023-04-03T03:38:30;3.90;;;3.13;;
5456;SDS011;2751;49.802;9.944;2023-04-03T03:40:57;3.53;;;3.23;;
5456;SDS011;2751;49.802;9.944;2023-04-03T03:43:24;3.10;;;2.90;;
5456;SDS011;2751;49.802;9.944;2023-04-03T03:45:51;2.80;;;2.60;;
5456;SDS011;2751;49.802;9.944;2023-04-03T03:48:19;2.50;;;2.23;;
5456;SDS011;2751;49.802;9.944;2023-04-03T03:50:48;2.33;;;2.13;;
5456;SDS011;2751;49.802;9.944;2023-04-03T03:53:15;2.73;;;2.53;;
5456;SDS011;2751;49.802;9.944;2023-04-03T03:55:42;2.10;;;2.00;;
5456;SDS011;2751;49.802;9.944;2023-04-03T03:58:09;4.07;;;2.40;;
5456;SDS011;2751;49.802;9.944;2023-04-03T04:00:36;3.23;;;2.23;;
5456;SDS011;2751;49.802;9.944;2023-04-03T04:03:03;2.47;;;2.27;;
5456;SDS011;2751;49.802;9.944;2023-04-03T04:05:30;2.60;;;2.40;;
5456;SDS011;2751;49.802;9.944;2023-04-03T04:07:59;2.20;;;2.00;;
5456;SDS011;2751;49.802;9.944;2023-04-03T04:10:25;3.73;;;2.37;;
5456;SDS011;2751;49.802;9.944;2023-04-03T04:12:52;2.57;;;2.37;;
5456;SDS011;2751;49.802;9.944;2023-04-03T04:15:19;2.53;;;2.43;;
5456;SDS011;2751;49.802;9.944;2023-04-03T04:17:48;3.40;;;2.43;;
5456;SDS011;2751;49.802;9.944;2023-04-03T04:20:14;3.33;;;2.23;;
5456;SDS011;2751;49.802;9.944;2023-04-03T04:22:42;3.17;;;2.47;;
5456;SDS011;2751;49.802;9.944;2023-04-03T04:25:10;3.23;;;2.80;;
5456;SDS011;2751;49.802;9.944;2023-04-03T04:27:37;3.23;;;2.70;;
5456;SDS011;2751;49.802;9.944;2023-04-03T04:30:05;4.13;;;2.90;;
5456;SDS011;2751;49.802;9.944;2023-04-03T04:32:32;2.70;;;2.50;;
5456;SDS011;2751;49.802;9.944;2023-04-03T04:34:59;3.93;;;3.53;;
5456;SDS011;2751;49.802;9.944;2023-04-03T04:37:26;4.27;;;3.10;;
5456;SDS011;2751;49.802;9.944;2023-04-03T04:39:53;3.47;;;2.80;;
5456;SDS011;2751;49.802;9.944;2023-04-03T04:42:21;2.90;;;2.67;;
5456;SDS011;2751;49.802;9.944;2023-04-03T04:44:48;5.10;;;2.90;;
5456;SDS011;2751;49.802;9.944;2023-04-03T04:47:15;2.67;;;2.43;;
5456;SDS011;2751;49.802;9.944;2023-04-03T04:49:43;2.90;;;2.30;;
5456;SDS011;2751;49.802;9.944;2023-04-03T04:52:12;2.53;;;2.33;;
5456;SDS011;2751;49.802;9.944;2023-04-03T04:54:39;4.03;;;2.80;;
5456;SDS011;2751;49.802;9.944;2023-04-03T04:57:06;3.30;;;3.00;;
5456;SDS011;2751;49.802;9.944;2023-04-03T04:59:34;2.20;;;2.07;;
5456;SDS011;2751;49.802;9.944;2023-04-03T05:02:01;2.97;;;2.20;;
5456;SDS011;2751;49.802;9.944;2023-04-03T05:04:28;3.33;;;2.60;;
5456;SDS011;2751;49.802;9.944;2023-04-03T05:06:55;2.27;;;2.07;;
5456;SDS011;2751;49.802;9.944;2023-04-03T05:09:22;3.03;;;2.70;;
5456;SDS011;2751;49.802;9.944;2023-04-03T05:11:49;2.60;;;2.40;;
5456;SDS011;2751;49.802;9.944;2023-04-03T05:14:16;2.40;;;2.30;;
5456;SDS011;2751;49.802;9.944;2023-04-03T05:16:44;2.67;;;2.47;;
5456;SDS011;2751;49.802;9.944;2023-04-03T05:19:12;3.17;;;2.70;;
5456;SDS011;2751;49.802;9.944;2023-04-03T05:21:39;2.80;;;2.60;;
5456;SDS011;2751;49.802;9.944;2023-04-03T05:24:06;4.63;;;2.50;;
5456;SDS011;2751;49.802;9.944;2023-04-03T05:26:34;2.77;;;2.57;;
5456;SDS011;2751;49.802;9.944;2023-04-03T05:29:01;3.53;;;2.70;;
5456;SDS011;2751;49.802;9.944;2023-04-03T05:31:28;3.00;;;2.10;;
5456;SDS011;2751;49.802;9.944;2023-04-03T05:33:57;2.93;;;2.73;;
5456;SDS011;2751;49.802;9.944;2023-04-03T05:36:24;3.17;;;2.43;;
5456;SDS011;2751;49.802;9.944;2023-04-03T05:38:51;2.87;;;2.67;;
5456;SDS011;2751;49.802;9.944;2023-04-03T05:41:19;2.50;;;2.30;;
5456;SDS011;2751;49.802;9.944;2023-04-03T05:43:46;3.23;;;2.70;;
5456;SDS011;2751;49.802;9.944;2023-04-03T05:46:14;4.73;;;3.07;;
5456;SDS011;2751;49.802;9.944;2023-04-03T05:48:43;2.50;;;2.40;;
5456;SDS011;2751;49.802;9.944;2023-04-03T05:51:14;3.03;;;2.83;;
5456;SDS011;2751;49.802;9.944;2023-04-03T05:53:42;3.20;;;2.87;;
5456;SDS011;2751;49.802;9.944;2023-04-03T05:56:11;2.50;;;2.40;;
5456;SDS011;2751;49.802;9.944;2023-04-03T05:58:38;2.73;;;2.53;;
5456;SDS011;2751;49.802;9.944;2023-04-03T06:01:05;3.40;;;2.83;;
5456;SDS011;2751;49.802;9.944;2023-04-03T06:03:32;4.13;;;2.60;;
5456;SDS011;2751;49.802;9.944;2023-04-03T06:06:01;4.87;;;2.77;;
5456;SDS011;2751;49.802;9.944;2023-04-03T06:08:31;3.00;;;2.73;;
5456;SDS011;2751;49.802;9.944;2023-04-03T06:10:58;1.73;;;1.63;;
5456;SDS011;2751;49.802;9.944;2023-04-03T06:13:25;2.70;;;2.50;;
5456;SDS011;2751;49.802;9.944;2023-04-03T06:15:52;2.40;;;2.20;;
5456;SDS011;2751;49.802;9.944;2023-04-03T06:18:18;2.67;;;2.43;;
5456;SDS011;2751;49.802;9.944;2023-04-03T06:20:45;4.83;;;2.30;;
5456;SDS011;2751;49.802;9.944;2023-04-03T06:23:12;2.57;;;2.37;;
5456;SDS011;2751;49.802;9.944;2023-04-03T06:25:40;2.07;;;1.90;;
5456;SDS011;2751;49.802;9.944;2023-04-03T06:28:08;4.40;;;2.30;;
5456;SDS011;2751;49.802;9.944;2023-04-03T06:30:35;2.80;;;2.60;;
5456;SDS011;2751;49.802;9.944;2023-04-03T06:33:02;4.97;;;2.70;;
5456;SDS011;2751;49.802;9.944;2023-04-03T06:35:29;2.30;;;2.20;;
5456;SDS011;2751;49.802;9.944;2023-04-03T06:37:56;4.40;;;2.67;;
5456;SDS011;2751;49.802;9.944;2023-04-03T06:40:24;4.90;;;2.90;;
5456;SDS011;2751;49.802;9.944;2023-04-03T06:42:53;2.10;;;2.00;;
5456;SDS011;2751;49.802;9.944;2023-04-03T06:45:20;4.40;;;2.67;;
5456;SDS011;2751;49.802;9.944;2023-04-03T06:47:46;3.60;;;2.20;;
5456;SDS011;2751;49.802;9.944;2023-04-03T06:50:13;5.93;;;1.63;;
5456;SDS011;2751;49.802;9.944;2023-04-03T06:52:41;3.63;;;2.50;;
5456;SDS011;2751;49.802;9.944;2023-04-03T06:55:08;3.90;;;2.80;;
5456;SDS011;2751;49.802;9.944;2023-04-03T06:57:35;4.10;;;3.03;;
5456;SDS011;2751;49.802;9.944;2023-04-03T07:00:04;4.57;;;3.10;;
5456;SDS011;2751;49.802;9.944;2023-04-03T07:02:32;2.90;;;2.23;;
5456;SDS011;2751;49.802;9.944;2023-04-03T07:04:59;2.70;;;2.50;;
5456;SDS011;2751;49.802;9.944;2023-04-03T07:07:26;2.60;;;2.40;;
5456;SDS011;2751;49.802;9.944;2023-04-03T07:09:53;1.70;;;1.60;;
5456;SDS011;2751;49.802;9.944;2023-04-03T07:12:20;3.80;;;2.10;;
5456;SDS011;2751;49.802;9.944;2023-04-03T07:14:47;2.20;;;2.10;;
5456;SDS011;2751;49.802;9.944;2023-04-03T07:17:15;4.60;;;2.47;;
5456;SDS011;2751;49.802;9.944;2023-04-03T07:19:42;2.63;;;2.40;;
5456;SDS011;2751;49.802;9.944;2023-04-03T07:22:09;2.30;;;2.03;;
5456;SDS011;2751;49.802;9.944;2023-04-03T07:24:37;3.57;;;2.47;;
5456;SDS011;2751;49.802;9.944;2023-04-03T07:27:04;2.30;;;2.20;;
5456;SDS011;2751;49.802;9.944;2023-04-03T07:29:33;2.20;;;1.80;;
5456;SDS011;2751;49.802;9.944;2023-04-03T07:32:00;2.17;;;2.00;;
5456;SDS011;2751;49.802;9.944;2023-04-03T07:34:28;3.20;;;2.63;;
5456;SDS011;2751;49.802;9.944;2023-04-03T07:36:55;2.00;;;1.90;;
5456;SDS011;2751;49.802;9.944;2023-04-03T07:39:22;2.03;;;1.93;;
5456;SDS011;2751;49.802;9.944;2023-04-03T07:41:50;4.27;;;2.53;;
5456;SDS011;2751;49.802;9.944;2023-04-03T07:44:17;5.60;;;1.97;;
5456;SDS011;2751;49.802;9.944;2023-04-03T07:46:43;3.53;;;2.13;;
5456;SDS011;2751;49.802;9.944;2023-04-03T07:49:11;2.33;;;1.90;;
5456;SDS011;2751;49.802;9.944;2023-04-03T07:51:40;3.30;;;2.10;;
5456;SDS011;2751;49.802;9.944;2023-04-03T07:54:06;3.30;;;2.33;;
5456;SDS011;2751;49.802;9.944;2023-04-03T07:56:33;4.37;;;2.20;;
5456;SDS011;2751;49.802;9.944;2023-04-03T07:59:00;2.33;;;2.17;;
5456;SDS011;2751;49.802;9.944;2023-04-03T08:01:27;2.10;;;1.80;;
5456;SDS011;2751;49.802;9.944;2023-04-03T08:03:57;4.53;;;1.90;;
5456;SDS011;2751;49.802;9.944;2023-04-03T08:06:24;2.20;;;2.00;;
5456;SDS011;2751;49.802;9.944;2023-04-03T08:08:52;2.63;;;1.87;;
5456;SDS011;2751;49.802;9.944;2023-04-03T08:11:19;2.30;;;2.10;;
5456;SDS011;2751;49.802;9.944;2023-04-03T08:13:46;2.37;;;2.17;;
5456;SDS011;2751;49.802;9.944;2023-04-03T08:16:15;2.23;;;1.93;;
5456;SDS011;2751;49.802;9.944;2023-04-03T08:18:44;1.93;;;1.83;;
5456;SDS011;2751;49.802;9.944;2023-04-03T08:21:11;2.67;;;2.47;;
5456;SDS011;2751;49.802;9.944;2023-04-03T08:23:38;3.40;;;2.40;;
5456;SDS011;2751;49.802;9.944;2023-04-03T08:26:09;3.80;;;2.30;;
5456;SDS011;2751;49.802;9.944;2023-04-03T08:28:37;3.53;;;2.10;;
5456;SDS011;2751;49.802;9.944;2023-04-03T08:31:04;3.00;;;2.27;;
5456;SDS011;2751;49.802;9.944;2023-04-03T08:33:32;2.13;;;1.90;;
5456;SDS011;2751;49.802;9.944;2023-04-03T08:36:00;3.30;;;2.10;;
5456;SDS011;2751;49.802;9.944;2023-04-03T08:38:28;2.47;;;2.30;;
5456;SDS011;2751;49.802;9.944;2023-04-03T08:41:02;3.80;;;2.00;;
5456;SDS011;2751;49.802;9.944;2023-04-03T08:43:40;1.43;;;1.33;;
5456;SDS011;2751;49.802;9.944;2023-04-03T08:46:19;2.03;;;1.83;;
5456;SDS011;2751;49.802;9.944;2023-04-03T08:48:52;3.37;;;2.70;;
5456;SDS011;2751;49.802;9.944;2023-04-03T08:51:20;1.93;;;1.80;;
5456;SDS011;2751;49.802;9.944;2023-04-03T08:53:51;3.10;;;1.70;;
5456;SDS011;2751;49.802;9.944;2023-04-03T08:56:23;2.53;;;1.70;;
5456;SDS011;2751;49.802;9.944;2023-04-03T08:58:55;5.30;;;2.30;;
5456;SDS011;2751;49.802;9.944;2023-04-03T09:01:25;2.87;;;1.90;;
5456;SDS011;2751;49.802;9.944;2023-04-03T09:03:55;4.00;;;2.60;;
5456;SDS011;2751;49.802;9.944;2023-04-03T09:06:23;4.40;;;2.30;;
5456;SDS011;2751;49.802;9.944;2023-04-03T09:08:56;2.23;;;1.90;;
5456;SDS011;2751;49.802;9.944;2023-04-03T09:11:36;2.20;;;1.70;;
5456;SDS011;2751;49.802;9.944;2023-04-03T09:14:15;2.30;;;1.90;;
5456;SDS011;2751;49.802;9.944;2023-04-03T09:16:49;3.23;;;2.40;;
5456;SDS011;2751;49.802;9.944;2023-04-03T09:19:22;3.60;;;1.90;;
5456;SDS011;2751;49.802;9.944;2023-04-03T09:21:58;2.00;;;1.80;;
5456;SDS011;2751;49.802;9.944;2023-04-03T09:24:28;2.93;;;1.87;;
5456;SDS011;2751;49.802;9.944;2023-04-03T09:26:59;4.20;;;2.07;;
5456;SDS011;2751;49.802;9.944;2023-04-03T09:29:32;7.07;;;2.27;;
5456;SDS011;2751;49.802;9.944;2023-04-03T09:32:12;2.13;;;1.90;;
5456;SDS011;2751;49.802;9.944;2023-04-03T09:34:47;2.43;;;2.23;;
5456;SDS011;2751;49.802;9.944;2023-04-03T09:37:34;2.33;;;1.90;;
5456;SDS011;2751;49.802;9.944;2023-04-03T09:40:27;1.73;;;1.63;;
5456;SDS011;2751;49.802;9.944;2023-04-03T09:43:00;3.70;;;1.77;;
5456;SDS011;2751;49.802;9.944;2023-04-03T09:45:30;2.13;;;1.77;;
5456;SDS011;2751;49.802;9.944;2023-04-03T09:48:06;2.03;;;1.93;;
5456;SDS011;2751;49.802;9.944;2023-04-03T09:50:38;2.40;;;1.93;;
5456;SDS011;2751;49.802;9.944;2023-04-03T09:53:27;3.23;;;1.70;;
5456;SDS011;2751;49.802;9.944;2023-04-03T09:55:56;2.47;;;2.27;;
5456;SDS011;2751;49.802;9.944;2023-04-03T09:58:28;5.10;;;1.90;;
5456;SDS011;2751;49.802;9.944;2023-04-03T10:01:00;2.17;;;1.73;;
5456;SDS011;2751;49.802;9.944;2023-04-03T10:03:29;2.83;;;2.00;;
5456;SDS011;2751;49.802;9.944;2023-04-03T10:05:59;2.10;;;1.90;;
5456;SDS011;2751;49.802;9.944;2023-04-03T10:08:27;3.53;;;2.17;;
5456;SDS011;2751;49.802;9.944;2023-04-03T10:11:10;2.90;;;1.93;;
5456;SDS011;2751;49.802;9.944;2023-04-03T10:13:54;1.90;;;1.80;;
5456;SDS011;2751;49.802;9.944;2023-04-03T10:16:26;2.13;;;1.93;;
5456;SDS011;2751;49.802;9.944;2023-04-03T10:21:53;1.87;;;1.70;;
5456;SDS011;2751;49.802;9.944;2023-04-03T10:24:27;2.73;;;2.53;;
5456;SDS011;2751;49.802;9.944;2023-04-03T10:27:02;3.50;;;2.30;;
5456;SDS011;2751;49.802;9.944;2023-04-03T10:29:36;1.83;;;1.73;;
5456;SDS011;2751;49.802;9.944;2023-04-03T10:32:17;1.80;;;1.70;;
5456;SDS011;2751;49.802;9.944;2023-04-03T10:34:58;3.57;;;1.80;;
5456;SDS011;2751;49.802;9.944;2023-04-03T10:37:35;3.33;;;1.93;;
5456;SDS011;2751;49.802;9.944;2023-04-03T10:40:20;3.03;;;1.93;;
5456;SDS011;2751;49.802;9.944;2023-04-03T10:42:57;1.50;;;1.40;;
5456;SDS011;2751;49.802;9.944;2023-04-03T10:45:29;2.60;;;2.23;;
5456;SDS011;2751;49.802;9.944;2023-04-03T10:48:07;3.30;;;1.80;;
5456;SDS011;2751;49.802;9.944;2023-04-03T10:50:43;2.07;;;1.70;;
5456;SDS011;2751;49.802;9.944;2023-04-03T10:53:16;3.87;;;1.87;;
5456;SDS011;2751;49.802;9.944;2023-04-03T10:55:53;3.80;;;2.60;;
5456;SDS011;2751;49.802;9.944;2023-04-03T10:58:26;2.20;;;1.93;;
5456;SDS011;2751;49.802;9.944;2023-04-03T11:00:59;1.47;;;1.37;;
5456;SDS011;2751;49.802;9.944;2023-04-03T11:03:31;1.97;;;1.70;;
5456;SDS011;2751;49.802;9.944;2023-04-03T11:06:02;1.73;;;1.53;;
5456;SDS011;2751;49.802;9.944;2023-04-03T11:08:33;3.27;;;2.00;;
5456;SDS011;2751;49.802;9.944;2023-04-03T11:11:05;1.93;;;1.83;;
5456;SDS011;2751;49.802;9.944;2023-04-03T11:13:37;2.10;;;1.80;;
5456;SDS011;2751;49.802;9.944;2023-04-03T11:16:07;3.17;;;1.70;;
5456;SDS011;2751;49.802;9.944;2023-04-03T11:18:37;2.23;;;2.03;;
5456;SDS011;2751;49.802;9.944;2023-04-03T11:21:11;3.23;;;1.97;;
5456;SDS011;2751;49.802;9.944;2023-04-03T11:23:42;3.23;;;1.87;;
5456;SDS011;2751;49.802;9.944;2023-04-03T11:26:12;2.17;;;1.50;;
5456;SDS011;2751;49.802;9.944;2023-04-03T11:28:41;3.90;;;2.40;;
5456;SDS011;2751;49.802;9.944;2023-04-03T11:31:12;2.53;;;1.50;;
5456;SDS011;2751;49.802;9.944;2023-04-03T11:33:53;1.77;;;1.50;;
5456;SDS011;2751;49.802;9.944;2023-04-03T11:36:30;2.50;;;1.60;;
5456;SDS011;2751;49.802;9.944;2023-04-03T11:39:00;1.60;;;1.50;;
5456;SDS011;2751;49.802;9.944;2023-04-03T11:41:35;1.50;;;1.40;;
5456;SDS011;2751;49.802;9.944;2023-04-03T11:44:04;1.60;;;1.50;;
5456;SDS011;2751;49.802;9.944;2023-04-03T11:46:49;1.50;;;1.40;;
5456;SDS011;2751;49.802;9.944;2023-04-03T11:58:22;1.60;;;1.37;;
5456;SDS011;2751;49.802;9.944;2023-04-03T12:00:52;1.63;;;1.33;;
5456;SDS011;2751;49.802;9.944;2023-04-03T12:12:41;3.57;;;2.83;;
5456;SDS011;2751;49.802;9.944;2023-04-03T12:21:17;1.67;;;1.50;;
5456;SDS011;2751;49.802;9.944;2023-04-03T12:24:02;2.10;;;1.60;;
5456;SDS011;2751;49.802;9.944;2023-04-03T12:26:38;5.30;;;1.90;;
5456;SDS011;2751;49.802;9.944;2023-04-03T12:29:12;1.67;;;1.40;;
5456;SDS011;2751;49.802;9.944;2023-04-03T12:31:46;3.73;;;1.53;;
5456;SDS011;2751;49.802;9.944;2023-04-03T12:34:25;2.30;;;1.10;;
5456;SDS011;2751;49.802;9.944;2023-04-03T12:37:07;2.70;;;1.40;;
5456;SDS011;2751;49.802;9.944;2023-04-03T12:39:48;2.10;;;1.43;;
5456;SDS011;2751;49.802;9.944;2023-04-03T12:42:33;1.57;;;1.47;;
5456;SDS011;2751;49.802;9.944;2023-04-03T12:45:23;2.83;;;1.90;;
5456;SDS011;2751;49.802;9.944;2023-04-03T12:47:52;1.70;;;1.40;;
5456;SDS011;2751;49.802;9.944;2023-04-03T12:50:21;1.33;;;1.23;;
5456;SDS011;2751;49.802;9.944;2023-04-03T12:52:57;2.60;;;1.67;;
5456;SDS011;2751;49.802;9.944;2023-04-03T12:55:27;4.20;;;1.80;;
5456;SDS011;2751;49.802;9.944;2023-04-03T12:57:56;1.97;;;1.83;;
5456;SDS011;2751;49.802;9.944;2023-04-03T13:00:31;4.67;;;1.53;;
5456;SDS011;2751;49.802;9.944;2023-04-03T13:02:59;2.07;;;1.70;;
5456;SDS011;2751;49.802;9.944;2023-04-03T13:05:29;1.40;;;1.30;;
5456;SDS011;2751;49.802;9.944;2023-04-03T13:07:58;2.03;;;1.90;;
5456;SDS011;2751;49.802;9.944;2023-04-03T13:10:28;2.50;;;1.30;;
5456;SDS011;2751;49.802;9.944;2023-04-03T13:12:58;2.30;;;1.77;;
5456;SDS011;2751;49.802;9.944;2023-04-03T13:15:39;1.70;;;1.60;;
5456;SDS011;2751;49.802;9.944;2023-04-03T13:18:20;1.60;;;1.50;;
5456;SDS011;2751;49.802;9.944;2023-04-03T13:20:48;1.60;;;1.50;;
5456;SDS011;2751;49.802;9.944;2023-04-03T13:23:16;1.80;;;1.47;;
5456;SDS011;2751;49.802;9.944;2023-04-03T13:25:45;2.20;;;1.80;;
5456;SDS011;2751;49.802;9.944;2023-04-03T13:28:15;1.60;;;1.50;;
5456;SDS011;2751;49.802;9.944;2023-04-03T13:30:54;2.03;;;1.83;;
5456;SDS011;2751;49.802;9.944;2023-04-03T13:33:24;2.30;;;1.60;;
5456;SDS011;2751;49.802;9.944;2023-04-03T13:35:56;2.60;;;1.67;;
5456;SDS011;2751;49.802;9.944;2023-04-03T13:38:27;2.20;;;1.60;;
5456;SDS011;2751;49.802;9.944;2023-04-03T13:40:57;2.53;;;2.33;;
5456;SDS011;2751;49.802;9.944;2023-04-03T13:43:27;1.73;;;1.57;;
5456;SDS011;2751;49.802;9.944;2023-04-03T13:45:57;2.07;;;1.87;;
5456;SDS011;2751;49.802;9.944;2023-04-03T13:48:34;2.10;;;1.87;;
5456;SDS011;2751;49.802;9.944;2023-04-03T13:51:04;1.77;;;1.40;;
5456;SDS011;2751;49.802;9.944;2023-04-03T13:53:33;1.57;;;1.47;;
5456;SDS011;2751;49.802;9.944;2023-04-03T13:56:08;1.53;;;1.43;;
5456;SDS011;2751;49.802;9.944;2023-04-03T13:58:51;1.70;;;1.60;;
5456;SDS011;2751;49.802;9.944;2023-04-03T14:01:22;2.13;;;1.60;;
5456;SDS011;2751;49.802;9.944;2023-04-03T14:03:52;2.07;;;1.60;;
5456;SDS011;2751;49.802;9.944;2023-04-03T14:06:21;2.10;;;1.50;;
5456;SDS011;2751;49.802;9.944;2023-04-03T14:08:48;1.70;;;1.33;;
5456;SDS011;2751;49.802;9.944;2023-04-03T14:11:16;2.43;;;1.50;;
5456;SDS011;2751;49.802;9.944;2023-04-03T14:13:47;2.60;;;1.80;;
5456;SDS011;2751;49.802;9.944;2023-04-03T14:16:16;1.70;;;1.50;;
5456;SDS011;2751;49.802;9.944;2023-04-03T14:18:45;1.83;;;1.40;;
5456;SDS011;2751;49.802;9.944;2023-04-03T14:21:13;2.40;;;1.40;;
5456;SDS011;2751;49.802;9.944;2023-04-03T14:23:42;1.87;;;1.77;;
5456;SDS011;2751;49.802;9.944;2023-04-03T14:26:10;1.17;;;1.07;;
5456;SDS011;2751;49.802;9.944;2023-04-03T14:28:39;2.03;;;1.20;;
5456;SDS011;2751;49.802;9.944;2023-04-03T14:31:08;1.67;;;1.30;;
5456;SDS011;2751;49.802;9.944;2023-04-03T14:33:36;1.10;;;1.10;;
5456;SDS011;2751;49.802;9.944;2023-04-03T14:36:05;4.40;;;1.27;;
5456;SDS011;2751;49.802;9.944;2023-04-03T14:38:40;5.27;;;1.20;;
5456;SDS011;2751;49.802;9.944;2023-04-03T14:41:08;1.40;;;1.30;;
5456;SDS011;2751;49.802;9.944;2023-04-03T14:43:38;1.30;;;1.27;;
5456;SDS011;2751;49.802;9.944;2023-04-03T14:46:05;2.73;;;1.47;;
5456;SDS011;2751;49.802;9.944;2023-04-03T14:48:41;2.87;;;1.50;;
5456;SDS011;2751;49.802;9.944;2023-04-03T14:51:08;2.30;;;1.20;;
5456;SDS011;2751;49.802;9.944;2023-04-03T14:53:37;3.00;;;1.70;;
5456;SDS011;2751;49.802;9.944;2023-04-03T14:56:10;1.60;;;1.20;;
5456;SDS011;2751;49.802;9.944;2023-04-03T14:58:38;1.40;;;1.27;;
5456;SDS011;2751;49.802;9.944;2023-04-03T15:01:05;1.27;;;1.17;;
5456;SDS011;2751;49.802;9.944;2023-04-03T15:03:33;1.27;;;1.17;;
5456;SDS011;2751;49.802;9.944;2023-04-03T15:06:00;2.83;;;1.50;;
5456;SDS011;2751;49.802;9.944;2023-04-03T15:08:27;1.53;;;1.30;;
5456;SDS011;2751;49.802;9.944;2023-04-03T15:10:55;1.10;;;1.10;;
5456;SDS011;2751;49.802;9.944;2023-04-03T15:13:23;1.00;;;1.00;;
5456;SDS011;2751;49.802;9.944;2023-04-03T15:15:51;1.30;;;1.17;;
5456;SDS011;2751;49.802;9.944;2023-04-03T15:18:19;1.47;;;1.27;;
5456;SDS011;2751;49.802;9.944;2023-04-03T15:20:49;1.90;;;1.30;;
5456;SDS011;2751;49.802;9.944;2023-04-03T15:23:16;2.50;;;1.20;;
5456;SDS011;2751;49.802;9.944;2023-04-03T15:25:43;1.10;;;1.07;;
5456;SDS011;2751;49.802;9.944;2023-04-03T15:28:14;1.53;;;1.20;;
5456;SDS011;2751;49.802;9.944;2023-04-03T15:30:45;1.83;;;1.40;;
5456;SDS011;2751;49.802;9.944;2023-04-03T15:33:13;1.30;;;1.20;;
5456;SDS011;2751;49.802;9.944;2023-04-03T15:35:40;2.17;;;1.23;;
5456;SDS011;2751;49.802;9.944;2023-04-03T15:38:08;2.97;;;1.17;;
5456;SDS011;2751;49.802;9.944;2023-04-03T15:40:35;5.83;;;1.10;;
5456;SDS011;2751;49.802;9.944;2023-04-03T15:43:03;1.00;;;0.97;;
5456;SDS011;2751;49.802;9.944;2023-04-03T15:45:30;1.20;;;1.10;;
5456;SDS011;2751;49.802;9.944;2023-04-03T15:47:58;1.17;;;0.83;;
5456;SDS011;2751;49.802;9.944;2023-04-03T15:50:25;3.53;;;0.93;;
5456;SDS011;2751;49.802;9.944;2023-04-03T15:52:52;1.17;;;1.07;;
5456;SDS011;2751;49.802;9.944;2023-04-03T15:55:21;2.43;;;1.20;;
5456;SDS011;2751;49.802;9.944;2023-04-03T15:57:49;1.37;;;1.20;;